Time;durP1;ratioP1;P1;durP2;ratioP2;P2;SDS_P1;SDS_P2;PMS_P1;PMS_P2;Temp;Humidity;BMP_temperature;BMP_pressure;BME280_temperature;BME280_humidity;BME280_pressure;Samples;Min_cycle;Max_cycle;Signal;HPM_P1;HPM_P2
2023/07/02 00:02:23;;;;;;;18.98;11.48;;;;;;;20.94;100.00;99348.09;5586972;31;34716;-70
2023/07/02 00:05:26;;;;;;;16.60;11.55;;;;;;;20.93;100.00;99346.47;5587092;31;33933;-71
2023/07/02 00:08:28;;;;;;;16.05;11.90;;;;;;;20.90;100.00;99347.81;5585848;31;33913;-69
2023/07/02 00:11:31;;;;;;;16.48;11.75;;;;;;;20.92;100.00;99352.94;5586613;31;33841;-70
2023/07/02 00:14:34;;;;;;;17.08;11.93;;;;;;;20.90;100.00;99358.59;5586696;31;34490;-69
2023/07/02 00:17:40;;;;;;;15.65;11.05;;;;;;;20.95;100.00;99347.03;5586227;31;33741;-70
2023/07/02 00:20:43;;;;;;;14.18;11.35;;;;;;;20.90;100.00;99352.41;5586646;31;34384;-70
2023/07/02 00:23:47;;;;;;;18.77;11.38;;;;;;;20.90;100.00;99352.41;5586497;31;34746;-70
2023/07/02 00:26:50;;;;;;;16.17;11.50;;;;;;;20.90;100.00;99347.81;5586499;31;33771;-69
2023/07/02 00:29:53;;;;;;;14.00;10.48;;;;;;;20.86;100.00;99352.09;5586323;31;33870;-70
2023/07/02 00:32:56;;;;;;;16.35;10.68;;;;;;;20.87;100.00;99347.50;5586385;31;33956;-68
2023/07/02 00:36:00;;;;;;;16.50;10.60;;;;;;;20.95;100.00;99352.44;5582173;31;34632;-69
2023/07/02 00:39:03;;;;;;;15.85;11.07;;;;;;;20.85;100.00;99345.09;5584801;31;35284;-69
2023/07/02 00:42:08;;;;;;;14.43;11.05;;;;;;;20.81;100.00;99344.00;5570095;31;34421;-70
2023/07/02 00:45:10;;;;;;;17.02;10.93;;;;;;;20.83;100.00;99347.22;5566452;32;33855;-68
2023/07/02 00:48:13;;;;;;;15.38;10.80;;;;;;;20.84;100.00;99346.16;5566818;32;32506;-69
2023/07/02 00:51:18;;;;;;;15.18;11.00;;;;;;;20.80;100.00;99353.16;5566209;32;34009;-70
2023/07/02 00:54:21;;;;;;;13.65;10.82;;;;;;;20.78;100.00;99347.19;5566424;32;33649;-69
2023/07/02 00:57:29;;;;;;;13.38;10.20;;;;;;;20.78;100.00;99349.88;5566632;32;34020;-70
2023/07/02 01:00:33;;;;;;;13.67;10.40;;;;;;;20.74;100.00;99346.91;5566587;32;33850;-67
2023/07/02 01:03:37;;;;;;;14.57;10.55;;;;;;;20.73;100.00;99350.66;5566548;32;33817;-69
2023/07/02 01:06:40;;;;;;;14.77;10.20;;;;;;;20.74;100.00;99346.91;5565965;32;34072;-69
2023/07/02 01:09:44;;;;;;;16.45;10.32;;;;;;;20.76;100.00;99341.25;5566020;32;33934;-69
2023/07/02 01:12:48;;;;;;;16.37;9.90;;;;;;;20.86;100.00;99354.00;5568552;32;34083;-69
2023/07/02 01:15:51;;;;;;;14.45;10.75;;;;;;;20.81;100.00;99347.50;5577661;31;34861;-68
2023/07/02 01:18:55;;;;;;;15.32;9.82;;;;;;;20.73;100.00;99350.66;5587033;31;33824;-69
2023/07/02 01:21:57;;;;;;;13.18;9.00;;;;;;;20.84;100.00;99346.16;5588091;31;33637;-69
2023/07/02 01:25:01;;;;;;;13.30;9.52;;;;;;;20.76;100.00;99358.25;5588193;31;34682;-69
2023/07/02 01:28:03;;;;;;;14.20;9.95;;;;;;;20.74;100.00;99356.88;5588236;31;33779;-69
2023/07/02 01:31:06;;;;;;;13.88;9.55;;;;;;;20.67;100.00;99353.59;5588186;31;33612;-69
2023/07/02 01:34:09;;;;;;;12.30;10.07;;;;;;;20.59;100.00;99357.56;5588250;31;34586;-69
2023/07/02 01:37:12;;;;;;;12.52;9.10;;;;;;;20.64;100.00;99346.81;5588053;31;34265;-69
2023/07/02 01:40:14;;;;;;;12.68;9.05;;;;;;;20.59;100.00;99359.44;5588166;31;34907;-68
2023/07/02 01:43:17;;;;;;;11.93;9.50;;;;;;;20.59;100.00;99360.25;5588486;31;34004;-70
2023/07/02 01:46:20;;;;;;;12.77;9.23;;;;;;;20.66;100.00;99354.66;5588096;31;33832;-69
2023/07/02 01:49:23;;;;;;;13.25;8.77;;;;;;;20.72;100.00;99367.91;5587854;31;33796;-69
2023/07/02 01:52:27;;;;;;;17.12;8.80;;;;;;;20.64;100.00;99364.88;5587993;31;34606;-69
2023/07/02 01:55:30;;;;;;;15.13;9.15;;;;;;;20.67;100.00;99358.97;5588351;31;33778;-69
2023/07/02 01:58:33;;;;;;;12.60;8.90;;;;;;;20.64;100.00;99363.00;5587993;31;33894;-69
2023/07/02 02:01:36;;;;;;;14.82;9.05;;;;;;;20.54;100.00;99360.22;5587822;31;33916;-69
2023/07/02 02:04:39;;;;;;;16.02;9.55;;;;;;;20.50;100.00;99353.72;5587885;31;33859;-70
2023/07/02 02:07:42;;;;;;;18.75;9.23;;;;;;;20.55;100.00;99361.84;5588085;31;34092;-68
2023/07/02 02:10:45;;;;;;;14.82;9.10;;;;;;;20.48;100.00;99355.06;5587766;31;34599;-69
2023/07/02 02:13:48;;;;;;;13.62;9.00;;;;;;;20.47;100.00;99364.22;5587824;31;34108;-68
2023/07/02 02:16:51;;;;;;;13.10;8.80;;;;;;;20.42;100.00;99356.06;5587795;31;33951;-69
2023/07/02 02:19:54;;;;;;;13.68;9.07;;;;;;;20.33;100.00;99345.75;5586931;31;34846;-69
2023/07/02 02:22:57;;;;;;;17.58;9.20;;;;;;;20.28;100.00;99352.97;5587913;31;33797;-69
2023/07/02 02:25:59;;;;;;;14.15;9.30;;;;;;;20.26;100.00;99344.31;5587755;31;33749;-69
2023/07/02 02:29:02;;;;;;;12.93;8.88;;;;;;;20.29;100.00;99350.00;5587616;31;33895;-68
2023/07/02 02:32:06;;;;;;;13.13;8.68;;;;;;;20.22;100.00;99346.72;5587620;31;33893;-68
2023/07/02 02:35:09;;;;;;;12.15;9.30;;;;;;;20.23;100.00;99342.97;5587585;31;33937;-68
2023/07/02 02:38:12;;;;;;;20.77;8.55;;;;;;;20.21;100.00;99344.28;5587669;31;35427;-67
2023/07/02 02:41:15;;;;;;;19.62;8.77;;;;;;;20.20;100.00;99351.53;5587398;31;33963;-67
2023/07/02 02:44:17;;;;;;;13.02;8.00;;;;;;;20.11;100.00;99333.41;5587730;31;34857;-68
2023/07/02 02:47:20;;;;;;;12.77;7.40;;;;;;;20.14;100.00;99341.00;5587532;31;33957;-66
2023/07/02 02:50:23;;;;;;;11.60;7.53;;;;;;;20.13;100.00;99334.78;5573408;31;34025;-68
2023/07/02 02:53:26;;;;;;;12.15;7.40;;;;;;;20.14;100.00;99336.38;5587506;31;33649;-66
2023/07/02 02:56:29;;;;;;;11.65;7.05;;;;;;;20.21;100.00;99334.31;5587398;31;34037;-68
2023/07/02 02:59:32;;;;;;;10.73;6.85;;;;;;;20.21;100.00;99333.50;5587290;31;33862;-66
2023/07/02 03:02:35;;;;;;;11.63;7.35;;;;;;;20.22;100.00;99337.81;5587383;31;33594;-68
2023/07/02 03:05:38;;;;;;;9.27;6.62;;;;;;;20.10;100.00;99343.34;5587309;31;33814;-67
2023/07/02 03:08:41;;;;;;;9.82;7.12;;;;;;;20.05;100.00;99340.63;5587204;31;33747;-68
2023/07/02 03:11:44;;;;;;;10.07;6.78;;;;;;;20.04;100.00;99343.59;5587072;31;34626;-68
2023/07/02 03:14:47;;;;;;;9.07;7.03;;;;;;;20.03;100.00;99337.37;5587057;31;33873;-68
2023/07/02 03:17:50;;;;;;;9.68;6.60;;;;;;;20.02;100.00;99330.37;5587209;31;33564;-68
2023/07/02 03:20:52;;;;;;;10.88;6.30;;;;;;;20.02;100.00;99338.44;5587141;31;33875;-69
2023/07/02 03:23:55;;;;;;;9.88;6.40;;;;;;;20.04;100.00;99339.00;5587197;31;33720;-68
2023/07/02 03:26:58;;;;;;;10.77;6.68;;;;;;;20.05;100.00;99335.22;5586164;31;34447;-68
2023/07/02 03:30:01;;;;;;;9.50;6.75;;;;;;;20.04;100.00;99340.88;5586970;31;33886;-68
2023/07/02 03:33:03;;;;;;;9.55;6.32;;;;;;;20.07;100.00;99343.06;5586324;31;33891;-67
2023/07/02 03:36:06;;;;;;;9.90;6.10;;;;;;;20.05;100.00;99339.78;5587379;31;35030;-69
2023/07/02 03:39:09;;;;;;;8.75;5.97;;;;;;;20.06;100.00;99339.56;5586936;31;34225;-68
2023/07/02 03:42:12;;;;;;;10.00;6.12;;;;;;;20.12;100.00;99352.00;5586002;31;33881;-69
2023/07/02 03:45:15;;;;;;;10.20;6.07;;;;;;;20.17;100.00;99353.94;5586643;31;34013;-68
2023/07/02 03:48:18;;;;;;;8.98;6.22;;;;;;;20.23;100.00;99359.13;5586930;31;33732;-68
2023/07/02 03:51:20;;;;;;;10.80;5.93;;;;;;;20.21;100.00;99371.19;5586647;31;34059;-67
2023/07/02 03:54:23;;;;;;;9.65;6.25;;;;;;;20.23;100.00;99374.47;5587107;31;34178;-68
2023/07/02 03:57:26;;;;;;;9.23;6.28;;;;;;;20.19;100.00;99365.25;5586774;31;34431;-67
2023/07/02 04:00:29;;;;;;;9.10;5.62;;;;;;;20.14;100.00;99368.69;5586639;31;33864;-68
2023/07/02 04:03:31;;;;;;;9.75;6.18;;;;;;;20.19;100.00;99374.13;5586776;31;33850;-69
2023/07/02 04:06:34;;;;;;;10.13;5.78;;;;;;;20.20;100.00;99372.25;5586598;31;34479;-68
2023/07/02 04:09:37;;;;;;;9.65;5.90;;;;;;;20.30;100.00;99375.91;5586556;31;34705;-69
2023/07/02 04:12:40;;;;;;;10.23;6.10;;;;;;;20.26;100.00;99379.34;5586597;31;34553;-68
2023/07/02 04:15:43;;;;;;;9.27;5.53;;;;;;;20.23;100.00;99377.16;5586520;31;34020;-68
2023/07/02 04:18:45;;;;;;;11.48;6.18;;;;;;;20.29;100.00;99376.94;5586490;31;34821;-68
2023/07/02 04:21:48;;;;;;;9.15;6.07;;;;;;;20.30;100.00;99375.91;5586398;31;33888;-69
2023/07/02 04:24:51;;;;;;;10.35;5.87;;;;;;;20.32;100.00;99381.03;5586495;31;33583;-69
2023/07/02 04:28:01;;;;;;;8.48;5.62;;;;;;;20.47;100.00;99386.56;5586676;31;33866;-68
2023/07/02 04:31:04;;;;;;;9.30;5.68;;;;;;;20.47;100.00;99391.16;5586279;31;34122;-68
2023/07/02 04:34:07;;;;;;;12.98;5.28;;;;;;;20.52;100.00;99389.31;5586321;31;34852;-68
2023/07/02 04:37:09;;;;;;;9.70;5.62;;;;;;;20.67;100.00;99385.94;5586314;31;33897;-68
2023/07/02 04:40:13;;;;;;;8.68;5.62;;;;;;;20.66;100.00;99390.50;5586298;31;33974;-68
2023/07/02 04:43:18;;;;;;;12.10;5.75;;;;;;;20.78;100.00;99387.62;5586166;31;33731;-69
2023/07/02 04:46:21;;;;;;;7.80;5.25;;;;;;;20.86;100.00;99399.81;5587909;31;33738;-68
2023/07/02 04:49:24;;;;;;;10.43;5.40;;;;;;;21.07;100.00;99398.87;5588351;31;34994;-68
2023/07/02 04:52:27;;;;;;;11.02;5.32;;;;;;;21.08;100.00;99405.91;5583334;31;34469;-69
2023/07/02 04:55:30;;;;;;;6.87;5.07;;;;;;;21.05;100.00;99401.84;5568914;32;33649;-69
2023/07/02 04:58:33;;;;;;;6.22;4.37;;;;;;;21.21;100.00;99405.47;5568771;32;34611;-69
2023/07/02 05:01:36;;;;;;;9.90;5.00;;;;;;;21.57;100.00;99409.19;5568962;32;33893;-69
2023/07/02 05:04:39;;;;;;;8.75;4.70;;;;;;;21.56;100.00;99410.25;5567730;32;34307;-69
2023/07/02 05:07:41;;;;;;;13.45;4.87;;;;;;;21.60;100.00;99411.34;5568645;32;33468;-68
2023/07/02 05:10:44;;;;;;;10.13;4.78;;;;;;;21.79;100.00;99411.69;5568403;32;34055;-69
2023/07/02 05:13:47;;;;;;;8.10;4.62;;;;;;;21.93;100.00;99420.94;5568557;32;34752;-67
2023/07/02 05:16:50;;;;;;;6.45;4.50;;;;;;;21.90;97.31;99414.16;5568471;32;34693;-69
2023/07/02 05:19:53;;;;;;;8.73;4.82;;;;;;;22.07;98.60;99430.22;5568614;32;34351;-69
2023/07/02 05:22:56;;;;;;;6.57;4.78;;;;;;;21.71;100.00;99433.81;5567712;32;33877;-69
2023/07/02 05:25:58;;;;;;;8.88;4.62;;;;;;;21.80;98.96;99430.34;5568416;32;33933;-68
2023/07/02 05:29:02;;;;;;;10.43;4.80;;;;;;;21.91;98.85;99439.28;5568829;32;33541;-69
2023/07/02 05:32:04;;;;;;;9.75;4.47;;;;;;;22.08;96.91;99431.81;5569817;31;33628;-69
2023/07/02 05:35:09;;;;;;;7.32;4.65;;;;;;;22.18;96.31;99433.72;5583671;31;34536;-69
2023/07/02 05:38:11;;;;;;;6.37;4.90;;;;;;;22.10;97.62;99437.78;5588038;31;33782;-68
2023/07/02 05:41:21;;;;;;;8.75;4.85;;;;;;;21.92;98.45;99441.75;5587899;31;33809;-69
2023/07/02 05:44:24;;;;;;;7.43;4.57;;;;;;;22.25;96.43;99434.28;5588051;31;33798;-70
2023/07/02 05:47:26;;;;;;;8.88;4.62;;;;;;;22.28;96.04;99441.84;5588298;31;33767;-69
2023/07/02 05:50:32;;;;;;;8.07;4.70;;;;;;;21.74;100.00;99447.56;5587612;31;33791;-69
2023/07/02 05:53:36;;;;;;;8.43;4.87;;;;;;;21.67;100.00;99442.44;5587925;31;33699;-69
2023/07/02 05:56:40;;;;;;;7.03;4.65;;;;;;;21.79;100.00;99444.09;5587603;31;33804;-69
2023/07/02 05:59:43;;;;;;;9.27;4.68;;;;;;;21.51;100.00;99451.53;5586913;31;34478;-70
2023/07/02 06:02:46;;;;;;;6.97;4.43;;;;;;;21.83;100.00;99454.13;5587775;31;34024;-68
2023/07/02 06:05:49;;;;;;;7.28;4.47;;;;;;;22.00;98.45;99457.47;5587870;31;33892;-70
2023/07/02 06:08:52;;;;;;;6.85;4.70;;;;;;;21.90;99.79;99461.97;5588138;31;33867;-67
2023/07/02 06:11:55;;;;;;;7.32;4.50;;;;;;;21.89;99.61;99455.75;5587331;31;34153;-70
2023/07/02 06:14:58;;;;;;;8.70;4.35;;;;;;;21.91;98.90;99458.19;5586991;31;34319;-68
2023/07/02 06:18:00;;;;;;;9.07;4.50;;;;;;;22.36;94.24;99461.09;5587765;31;33929;-69
2023/07/02 06:21:04;;;;;;;6.95;3.85;;;;;;;22.17;95.87;99457.25;5587532;31;34714;-68
2023/07/02 06:24:07;;;;;;;8.52;4.55;;;;;;;22.40;95.76;99458.66;5587574;31;33852;-69
2023/07/02 06:27:09;;;;;;;8.73;4.45;;;;;;;22.16;96.65;99461.03;5587647;31;33814;-68
2023/07/02 06:30:12;;;;;;;7.87;4.10;;;;;;;22.21;96.57;99462.94;5587332;31;33725;-69
2023/07/02 06:33:15;;;;;;;6.32;4.35;;;;;;;22.28;95.70;99468.88;5587513;31;33917;-70
2023/07/02 06:36:19;;;;;;;7.78;4.18;;;;;;;22.24;95.76;99467.78;5587451;31;34006;-69
2023/07/02 06:39:21;;;;;;;8.38;4.30;;;;;;;22.46;93.15;99468.41;5587674;31;34346;-70
2023/07/02 06:42:25;;;;;;;6.82;4.20;;;;;;;22.65;90.64;99460.59;5587098;31;34158;-70
2023/07/02 06:45:29;;;;;;;7.00;4.20;;;;;;;22.86;90.76;99473.06;5587163;31;34012;-70
2023/07/02 06:48:32;;;;;;;7.95;4.10;;;;;;;22.88;91.27;99465.50;5586108;31;33635;-70
2023/07/02 06:51:36;;;;;;;7.25;4.40;;;;;;;23.05;88.43;99474.13;5587114;31;33626;-70
2023/07/02 06:54:39;;;;;;;7.30;4.47;;;;;;;23.17;87.00;99477.41;5587128;31;35365;-69
2023/07/02 06:57:45;;;;;;;6.25;4.03;;;;;;;23.48;83.28;99475.47;5587128;31;33723;-69
2023/07/02 07:00:48;;;;;;;7.85;4.37;;;;;;;23.35;82.96;99478.72;5586979;31;34606;-69
2023/07/02 07:03:52;;;;;;;8.75;3.70;;;;;;;23.70;82.03;99486.00;5587384;31;33815;-70
2023/07/02 07:06:57;;;;;;;7.87;4.05;;;;;;;23.97;78.08;99486.44;5586429;31;34868;-66
2023/07/02 07:09:59;;;;;;;7.30;4.10;;;;;;;24.07;77.30;99496.41;5587000;31;33731;-69
2023/07/02 07:13:03;;;;;;;5.60;3.90;;;;;;;24.10;75.68;99499.41;5586934;31;34013;-71
2023/07/02 07:16:05;;;;;;;8.60;3.92;;;;;;;24.32;74.02;99496.34;5587175;31;34535;-69
2023/07/02 07:19:08;;;;;;;6.95;3.72;;;;;;;24.71;72.45;99504.50;5587289;31;34853;-70
2023/07/02 07:22:11;;;;;;;6.15;3.67;;;;;;;24.66;69.53;99507.25;5587056;31;33917;-68
2023/07/02 07:25:13;;;;;;;6.07;3.80;;;;;;;24.65;71.87;99503.72;5587160;31;34632;-71
2023/07/02 07:28:19;;;;;;;10.32;3.85;;;;;;;24.81;70.38;99503.63;5587592;31;33566;-71
2023/07/02 07:31:22;;;;;;;5.53;3.78;;;;;;;25.15;69.24;99493.62;5586723;31;33811;-70
2023/07/02 07:34:25;;;;;;;6.93;3.60;;;;;;;25.06;68.50;99498.06;5586899;31;34407;-70
2023/07/02 07:37:28;;;;;;;8.45;3.75;;;;;;;25.15;68.46;99500.97;5586953;31;34637;-69
2023/07/02 07:40:30;;;;;;;6.20;3.92;;;;;;;25.32;67.75;99504.84;5586600;31;33822;-70
2023/07/02 07:43:33;;;;;;;5.93;3.72;;;;;;;26.15;64.08;99504.53;5586713;31;34514;-69
2023/07/02 07:46:36;;;;;;;7.78;3.50;;;;;;;26.27;60.39;99507.69;5586797;31;33607;-70
2023/07/02 07:49:39;;;;;;;5.72;3.42;;;;;;;27.11;57.81;99510.56;5582317;31;135336;-69
2023/07/02 07:52:42;;;;;;;7.35;3.50;;;;;;;27.61;54.91;99506.97;5586077;31;33797;-71
2023/07/02 07:55:45;;;;;;;5.53;3.17;;;;;;;27.78;53.11;99509.12;5585794;31;33755;-69
2023/07/02 07:58:48;;;;;;;5.40;3.33;;;;;;;27.79;52.83;99509.94;5586575;31;34559;-71
2023/07/02 08:01:51;;;;;;;5.78;3.30;;;;;;;28.71;51.32;99510.47;5586096;31;35235;-71
2023/07/02 08:04:54;;;;;;;4.87;3.12;;;;;;;29.36;48.87;99513.53;5586109;31;33747;-70
2023/07/02 08:07:57;;;;;;;10.38;2.80;;;;;;;30.27;45.99;99517.62;5586692;31;33710;-69
2023/07/02 08:11:00;;;;;;;6.43;2.87;;;;;;;30.18;45.36;99515.69;5585821;31;33946;-70
2023/07/02 08:14:03;;;;;;;6.30;3.10;;;;;;;30.29;46.27;99520.87;5585917;31;34705;-70
2023/07/02 08:17:07;;;;;;;5.93;3.35;;;;;;;31.08;46.11;99526.94;5586347;31;33605;-70
2023/07/02 08:20:11;;;;;;;9.45;2.70;;;;;;;29.22;48.15;99545.56;5585884;31;33799;-69
2023/07/02 08:23:14;;;;;;;7.72;2.92;;;;;;;28.62;49.80;99536.84;5586118;31;33722;-71
2023/07/02 08:26:17;;;;;;;5.85;3.20;;;;;;;27.99;51.81;99531.31;5585920;31;33907;-68
2023/07/02 08:29:19;;;;;;;4.35;3.00;;;;;;;29.32;48.75;99547.28;5585953;31;33674;-71
2023/07/02 08:32:22;;;;;;;7.10;2.97;;;;;;;28.89;48.76;99539.53;5585406;31;34403;-69
2023/07/02 08:35:25;;;;;;;10.77;2.90;;;;;;;29.55;48.66;99551.59;5585814;31;33768;-68
2023/07/02 08:38:28;;;;;;;4.65;2.60;;;;;;;29.08;48.96;99553.00;5585655;31;34306;-69
2023/07/02 08:41:42;;;;;;;5.87;2.97;;;;;;;29.42;47.83;99554.41;5585600;31;34446;-70
2023/07/02 08:44:48;;;;;;;5.43;3.50;;;;;;;27.54;51.18;99557.53;5585476;31;33994;-70
2023/07/02 08:47:54;;;;;;;5.37;2.97;;;;;;;27.25;53.33;99560.44;5582828;31;34471;-71
2023/07/02 08:50:57;;;;;;;6.25;2.85;;;;;;;28.28;52.09;99559.13;5577524;31;33661;-71
2023/07/02 08:54:04;;;;;;;5.15;3.00;;;;;;;27.84;51.36;99565.13;5567993;31;34016;-69
2023/07/02 08:57:06;;;;;;;7.85;2.95;;;;;;;27.82;50.07;99574.75;5577409;31;34985;-69
2023/07/02 09:00:10;;;;;;;6.97;3.45;;;;;;;27.49;50.84;99566.59;5572996;31;34830;-70
2023/07/02 09:03:16;;;;;;;5.95;2.83;;;;;;;27.71;50.10;99567.84;5577304;31;33711;-71
2023/07/02 09:06:19;;;;;;;5.12;3.28;;;;;;;27.51;49.78;99577.19;5580565;31;34069;-69
2023/07/02 09:09:22;;;;;;;6.75;3.30;;;;;;;26.93;51.83;99582.16;5569014;31;33708;-71
2023/07/02 09:12:30;;;;;;;4.22;3.20;;;;;;;27.41;50.47;99578.12;5575896;31;34366;-72
2023/07/02 09:15:40;;;;;;;8.15;3.45;;;;;;;27.09;51.92;99578.94;5572743;31;34097;-70
2023/07/02 09:18:43;;;;;;;7.25;3.65;;;;;;;27.20;51.43;99574.94;5567386;31;33690;-67
2023/07/02 09:21:49;;;;;;;6.32;3.80;;;;;;;27.60;51.34;99564.47;5571860;31;33671;-70
2023/07/02 09:25:00;;;;;;;4.78;3.60;;;;;;;29.08;47.30;99577.59;5581222;31;33674;-71
2023/07/02 09:28:14;;;;;;;5.37;3.60;;;;;;;29.78;44.65;99566.81;5572425;31;33990;-71
2023/07/02 09:31:17;;;;;;;5.55;3.62;;;;;;;29.87;43.87;99566.84;5572062;31;33688;-71
2023/07/02 09:34:19;;;;;;;8.27;3.78;;;;;;;29.60;45.77;99575.25;5581264;31;34923;-71
2023/07/02 09:37:23;;;;;;;6.15;3.70;;;;;;;29.32;44.87;99571.84;5587044;31;33922;-72
2023/07/02 09:40:28;;;;;;;4.85;3.40;;;;;;;29.40;46.12;99567.56;5577884;31;33831;-71
2023/07/02 09:43:32;;;;;;;8.38;3.37;;;;;;;30.79;43.48;99565.09;5576315;31;34120;-71
2023/07/02 09:46:37;;;;;;;5.90;3.62;;;;;;;31.71;41.05;99567.28;5579656;31;33824;-72
2023/07/02 09:49:59;;;;;;;10.00;3.60;;;;;;;31.62;41.18;99552.81;5585612;31;34539;-68
2023/07/02 09:53:02;;;;;;;9.73;3.03;;;;;;;32.76;38.78;99570.06;5586404;31;33938;-69
2023/07/02 09:56:07;;;;;;;8.30;3.70;;;;;;;31.53;39.64;99573.94;5587376;31;33901;-71
2023/07/02 09:59:10;;;;;;;7.53;3.30;;;;;;;31.47;39.62;99565.06;5575392;31;33628;-68
2023/07/02 10:02:13;;;;;;;8.02;3.30;;;;;;;31.75;39.41;99575.69;5568277;32;34861;-68
2023/07/02 10:05:30;;;;;;;11.23;3.35;;;;;;;30.91;40.14;99571.53;5567633;32;33822;-70
2023/07/02 10:08:33;;;;;;;6.65;3.17;;;;;;;31.32;39.80;99565.56;5578254;31;34618;-69
2023/07/02 10:11:36;;;;;;;5.28;3.00;;;;;;;31.04;40.77;99565.13;5586512;31;34510;-69
2023/07/02 10:14:43;;;;;;;4.85;3.33;;;;;;;31.58;39.32;99570.25;5568668;31;33901;-71
2023/07/02 10:17:58;;;;;;;9.40;3.20;;;;;;;32.46;37.76;99573.94;5575799;31;35118;-71
2023/07/02 10:21:13;;;;;;;7.50;3.22;;;;;;;32.41;37.00;99581.56;5579054;31;33847;-69
2023/07/02 10:24:17;;;;;;;7.70;3.30;;;;;;;31.78;37.30;99575.84;5571869;31;33909;-69
2023/07/02 10:27:21;;;;;;;3.55;2.78;;;;;;;31.88;37.37;99567.25;5562365;31;33715;-67
2023/07/02 10:30:38;;;;;;;7.93;3.00;;;;;;;32.44;36.54;99567.97;5575911;31;34582;-69
2023/07/02 10:33:44;;;;;;;5.53;2.90;;;;;;;33.11;36.15;99565.06;5575518;31;34889;-71
2023/07/02 10:36:53;;;;;;;6.97;3.25;;;;;;;33.97;34.37;99569.75;5576556;31;34906;-68
2023/07/02 10:39:56;;;;;;;4.37;2.90;;;;;;;33.96;34.37;99568.13;5576607;31;33687;-68
2023/07/02 10:42:59;;;;;;;5.25;3.25;;;;;;;33.11;36.32;99550.56;5571729;31;33924;-72
2023/07/02 10:46:05;;;;;;;6.85;3.08;;;;;;;31.96;37.86;99551.06;5580194;31;34335;-72
2023/07/02 10:49:09;;;;;;;12.15;3.15;;;;;;;32.47;36.80;99541.81;5576265;31;34039;-68
2023/07/02 10:52:12;;;;;;;5.57;2.90;;;;;;;33.86;35.71;99556.75;5566878;32;33898;-71
2023/07/02 10:55:22;;;;;;;4.72;2.67;;;;;;;33.04;35.93;99556.59;5567918;31;32427;-71
2023/07/02 10:58:26;;;;;;;8.00;3.05;;;;;;;33.23;35.05;99550.63;5567794;32;33827;-69
2023/07/02 11:01:31;;;;;;;3.83;2.60;;;;;;;33.78;34.42;99543.91;5581828;31;33816;-70
2023/07/02 11:04:36;;;;;;;6.80;2.75;;;;;;;35.36;32.46;99541.72;5586250;31;34351;-68
2023/07/02 11:07:43;;;;;;;5.12;2.60;;;;;;;33.01;35.87;99540.78;5586599;31;34267;-71
2023/07/02 11:10:46;;;;;;;4.65;2.80;;;;;;;30.65;40.31;99538.66;5586952;31;33769;-70
2023/07/02 11:13:53;;;;;;;7.18;2.85;;;;;;;33.47;36.20;99547.12;5586872;31;34727;-66
2023/07/02 11:16:57;;;;;;;4.95;2.75;;;;;;;34.02;34.34;99539.25;5586870;31;33671;-72
2023/07/02 11:20:00;;;;;;;8.63;2.80;;;;;;;34.75;33.37;99550.22;5586849;31;34856;-71
2023/07/02 11:23:04;;;;;;;6.32;2.87;;;;;;;33.58;34.49;99546.38;5587022;31;33739;-72
2023/07/02 11:26:08;;;;;;;6.12;2.90;;;;;;;33.25;34.74;99537.34;5586726;31;32379;-70
2023/07/02 11:29:11;;;;;;;8.45;2.78;;;;;;;34.30;32.47;99546.81;5586572;31;33758;-68
2023/07/02 11:32:15;;;;;;;3.83;2.62;;;;;;;34.73;31.61;99547.00;5586016;31;35026;-68
2023/07/02 11:35:18;;;;;;;4.90;2.60;;;;;;;32.56;34.04;99537.06;5586632;31;35496;-69
2023/07/02 11:38:21;;;;;;;5.55;2.53;;;;;;;34.86;31.57;99550.53;5586745;31;33618;-69
2023/07/02 11:41:23;;;;;;;4.37;2.40;;;;;;;35.35;30.97;99553.91;5586724;31;33591;-70
2023/07/02 11:44:26;;;;;;;4.60;2.55;;;;;;;35.99;30.05;99544.56;5586943;31;33847;-70
2023/07/02 11:47:29;;;;;;;4.60;2.45;;;;;;;35.00;31.50;99548.19;5586428;31;34133;-71
2023/07/02 11:50:32;;;;;;;4.05;2.60;;;;;;;34.61;32.48;99552.53;5586052;31;33906;-67
2023/07/02 11:53:34;;;;;;;4.97;2.60;;;;;;;33.36;33.57;99534.94;5583419;31;33871;-71
2023/07/02 11:56:38;;;;;;;4.93;2.60;;;;;;;35.01;31.23;99535.19;5567464;31;34736;-70
2023/07/02 11:59:42;;;;;;;6.05;2.58;;;;;;;36.44;29.92;99544.91;5566822;32;33946;-70
2023/07/02 12:02:44;;;;;;;4.95;2.37;;;;;;;34.50;31.13;99537.63;5566523;32;33916;-70
2023/07/02 12:05:47;;;;;;;6.82;2.53;;;;;;;36.17;28.71;99540.31;5569289;31;33747;-69
2023/07/02 12:08:51;;;;;;;5.28;2.47;;;;;;;35.11;30.08;99542.97;5591050;31;33897;-71
2023/07/02 12:11:54;;;;;;;4.30;2.55;;;;;;;36.17;29.29;99541.09;5574655;31;33628;-70
2023/07/02 12:14:56;;;;;;;6.47;2.50;;;;;;;34.74;30.91;99532.09;5566762;32;34775;-69
2023/07/02 12:17:59;;;;;;;5.55;2.20;;;;;;;34.21;31.71;99526.88;5573797;31;33826;-68
2023/07/02 12:21:02;;;;;;;2.60;2.05;;;;;;;34.18;31.77;99530.31;5574065;31;34142;-68
2023/07/02 12:24:08;;;;;;;3.37;2.00;;;;;;;35.05;30.43;99530.59;5566611;32;33943;-69
2023/07/02 12:27:11;;;;;;;4.87;2.08;;;;;;;34.46;31.71;99539.47;5565815;31;34552;-69
2023/07/02 12:30:17;;;;;;;3.37;2.25;;;;;;;33.74;32.73;99532.00;5566531;32;33762;-69
2023/07/02 12:33:19;;;;;;;6.35;2.10;;;;;;;34.06;32.33;99520.06;5566436;32;34501;-70
2023/07/02 12:36:23;;;;;;;3.08;2.10;;;;;;;32.08;36.04;99523.75;5573317;31;33864;-68
2023/07/02 12:39:26;;;;;;;3.12;2.20;;;;;;;33.81;33.53;99527.53;5566529;32;33714;-70
2023/07/02 12:42:29;;;;;;;5.78;2.40;;;;;;;36.01;30.93;99529.25;5566446;32;34762;-71
2023/07/02 12:45:32;;;;;;;7.78;2.30;;;;;;;35.32;31.38;99524.28;5566730;32;34440;-69
2023/07/02 12:48:35;;;;;;;5.53;2.00;;;;;;;36.56;29.60;99525.41;5566164;32;34141;-70
2023/07/02 12:51:37;;;;;;;3.22;1.80;;;;;;;35.84;29.65;99534.31;5566217;32;33885;-70
2023/07/02 12:54:40;;;;;;;6.47;1.90;;;;;;;37.32;28.05;99528.63;5566018;32;33819;-72
2023/07/02 12:57:43;;;;;;;4.45;1.50;;;;;;;39.35;26.39;99533.31;5576017;31;33907;-72
2023/07/02 13:00:47;;;;;;;3.97;1.60;;;;;;;36.34;28.87;99522.56;5583441;31;33806;-68
2023/07/02 13:03:50;;;;;;;5.82;1.75;;;;;;;37.04;28.10;99523.28;5572409;31;34657;-72
2023/07/02 13:06:53;;;;;;;3.15;1.50;;;;;;;35.83;29.86;99524.44;5567864;32;33856;-69
2023/07/02 13:09:56;;;;;;;1.83;1.40;;;;;;;33.26;32.88;99511.44;5568688;32;33741;-70
2023/07/02 13:12:59;;;;;;;2.85;1.40;;;;;;;31.28;36.35;99531.72;5568814;32;34815;-70
2023/07/02 13:16:19;;;;;;;2.78;1.08;;;;;;;30.50;37.01;99530.91;5568432;32;33790;-67
2023/07/02 13:19:22;;;;;;;5.37;1.10;;;;;;;33.25;32.81;99522.78;5568142;32;34019;-69
2023/07/02 13:22:25;;;;;;;4.75;1.02;;;;;;;33.03;32.60;99524.72;5568234;32;34135;-68
2023/07/02 13:25:31;;;;;;;4.72;0.85;;;;;;;36.30;28.64;99533.53;5568664;32;33796;-67
2023/07/02 13:28:34;;;;;;;2.50;0.82;;;;;;;35.58;27.77;99527.38;5567245;32;33600;-69
2023/07/02 13:31:37;;;;;;;3.45;1.20;;;;;;;34.58;28.93;99527.59;5568374;32;33844;-67
2023/07/02 13:34:39;;;;;;;5.62;1.10;;;;;;;34.88;28.73;99526.97;5568074;32;33802;-69
2023/07/02 13:37:42;;;;;;;1.77;0.75;;;;;;;37.60;26.21;99523.63;5568046;32;33941;-70
2023/07/02 13:40:45;;;;;;;9.00;1.05;;;;;;;37.20;26.65;99534.28;5568113;32;34929;-70
2023/07/02 13:43:47;;;;;;;3.60;0.80;;;;;;;36.51;27.39;99528.47;5568175;32;34804;-69
2023/07/02 13:46:50;;;;;;;2.10;0.85;;;;;;;34.36;29.95;99521.47;5570057;31;34099;-68
2023/07/02 13:49:53;;;;;;;1.35;0.80;;;;;;;35.16;29.09;99523.41;5604643;31;34074;-68
2023/07/02 13:52:56;;;;;;;2.28;1.10;;;;;;;35.89;28.54;99523.81;5606767;31;33881;-70
2023/07/02 13:56:00;;;;;;;4.70;1.10;;;;;;;35.49;28.91;99521.19;5606620;31;34734;-70
2023/07/02 13:59:03;;;;;;;2.12;1.10;;;;;;;35.93;28.29;99518.38;5607750;31;33830;-69
2023/07/02 14:02:07;;;;;;;2.50;1.10;;;;;;;36.90;26.96;99517.47;5607729;31;33963;-69
2023/07/02 14:05:10;;;;;;;3.00;0.95;;;;;;;36.11;27.99;99511.34;5606448;31;34896;-68
2023/07/02 14:08:12;;;;;;;1.80;0.90;;;;;;;37.76;26.29;99527.03;5607029;31;33861;-70
2023/07/02 14:11:16;;;;;;;1.60;0.90;;;;;;;34.98;29.38;99522.94;5607161;31;35051;-70
2023/07/02 14:14:19;;;;;;;1.05;0.80;;;;;;;34.14;30.75;99515.59;5606872;31;33835;-71
2023/07/02 14:17:21;;;;;;;2.45;1.00;;;;;;;33.01;32.77;99515.25;5606649;31;34397;-68